createdAt,value
2018-06-01T00:00:45.260Z,0
2018-06-01T00:01:45.159Z,0
2018-06-01T00:02:45.440Z,0
2018-06-01T00:03:45.228Z,0
2018-06-01T00:04:45.723Z,0
2018-06-01T00:05:45.495Z,0
2018-06-01T00:06:45.775Z,0
2018-06-01T00:07:45.795Z,0
2018-06-01T00:08:45.820Z,0
2018-06-01T00:09:45.616Z,0
2018-06-01T00:10:45.874Z,0
2018-06-01T00:11:45.695Z,0
2018-06-01T00:12:45.660Z,0
2018-06-01T00:13:45.692Z,0
2018-06-01T00:14:45.713Z,0
2018-06-01T00:15:45.740Z,0
2018-06-01T00:16:46.051Z,0
2018-06-01T00:17:46.065Z,0
2018-06-01T00:18:46.098Z,0
2018-06-01T00:19:45.859Z,0
2018-06-01T00:20:45.883Z,0
2018-06-01T00:21:45.906Z,0
2018-06-01T00:22:45.421Z,0
2018-06-01T00:23:45.709Z,0
2018-06-01T00:24:46.238Z,0
2018-06-01T00:25:45.998Z,0
2018-06-01T00:26:46.331Z,0
2018-06-01T00:27:46.054Z,0
2018-06-01T00:28:46.328Z,0
2018-06-01T00:29:46.097Z,0
2018-06-01T00:30:46.122Z,0
2018-06-01T00:31:46.404Z,0
2018-06-01T00:32:46.429Z,0
2018-06-01T00:33:46.215Z,0
2018-06-01T00:34:46.485Z,0
2018-06-01T00:35:46.521Z,0
2018-06-01T00:36:46.550Z,0
2018-06-01T00:37:46.564Z,0
2018-06-01T00:38:45.815Z,0
2018-06-01T00:39:46.103Z,0
2018-06-01T00:40:46.122Z,0
2018-06-01T00:41:46.199Z,0
2018-06-01T00:42:46.697Z,0
2018-06-01T00:43:46.201Z,0
2018-06-01T00:44:46.473Z,0
2018-06-01T00:45:46.494Z,0
2018-06-01T00:46:46.780Z,0
2018-06-01T00:47:46.554Z,0
2018-06-01T00:48:46.853Z,0
2018-06-01T00:49:46.589Z,0
2018-06-01T00:50:46.874Z,0
2018-06-01T00:51:46.904Z,0
2018-06-01T00:52:46.915Z,0
2018-06-01T00:53:46.958Z,0
2018-06-01T00:54:46.457Z,0
2018-06-01T00:55:46.737Z,0
2018-06-01T00:56:46.814Z,0
2018-06-01T00:57:47.037Z,0
2018-06-01T00:58:47.080Z,0
2018-06-01T00:59:47.091Z,0
2018-06-01T01:00:47.110Z,0
2018-06-01T01:01:46.885Z,0
2018-06-01T01:02:46.884Z,0
2018-06-01T01:03:46.683Z,0
2018-06-01T01:04:46.941Z,0
2018-06-01T01:05:46.703Z,0
2018-06-01T01:06:47.033Z,0
2018-06-01T01:07:46.754Z,0
2018-06-01T01:08:47.030Z,0
2018-06-01T01:09:47.315Z,0
2018-06-01T01:10:47.358Z,0
2018-06-01T01:11:47.178Z,0
2018-06-01T01:12:47.149Z,0
2018-06-01T01:13:47.416Z,0
2018-06-01T01:14:47.454Z,0
2018-06-01T01:15:47.208Z,0
2018-06-01T01:16:47.276Z,0
2018-06-01T01:17:47.498Z,0
2018-06-01T01:18:47.016Z,0
2018-06-01T01:19:47.297Z,0
2018-06-01T01:20:47.323Z,0
2018-06-01T01:21:47.345Z,0
2018-06-01T01:22:47.647Z,0
2018-06-01T01:23:47.410Z,0
2018-06-01T01:24:47.691Z,0
2018-06-01T01:25:47.481Z,0
2018-06-01T01:26:47.538Z,0
2018-06-01T01:27:47.785Z,0
2018-06-01T01:28:47.585Z,0
2018-06-01T01:29:47.812Z,0
2018-06-01T01:30:47.336Z,0
2018-06-01T01:31:47.862Z,0
2018-06-01T01:32:47.897Z,0
2018-06-01T01:33:47.394Z,0
2018-06-01T01:34:47.681Z,0
2018-06-01T01:35:47.954Z,0
2018-06-01T01:36:47.981Z,0
2018-06-01T01:37:48.049Z,0
2018-06-01T01:38:48.077Z,0
2018-06-01T01:39:47.803Z,0
2018-06-01T01:40:47.819Z,0
2018-06-01T01:41:47.918Z,0
2018-06-01T01:42:48.131Z,0
2018-06-01T01:43:47.886Z,0
2018-06-01T01:44:48.170Z,0
2018-06-01T01:45:48.139Z,0
2018-06-01T01:46:48.231Z,0
2018-06-01T01:47:47.978Z,0
2018-06-01T01:48:48.255Z,0
2018-06-01T01:49:47.786Z,0
2018-06-01T01:50:48.060Z,0
2018-06-01T01:51:48.085Z,0
2018-06-01T01:52:48.098Z,0
2018-06-01T01:53:48.411Z,0
2018-06-01T01:54:47.382Z,0
2018-06-01T01:55:48.162Z,0
2018-06-01T01:56:48.249Z,0
2018-06-01T01:57:48.227Z,0
2018-06-01T01:58:48.519Z,0
2018-06-01T01:59:48.533Z,0
2018-06-01T02:00:48.558Z,0
2018-06-01T02:01:48.318Z,0
2018-06-01T02:02:48.606Z,0
2018-06-01T02:03:48.359Z,0
2018-06-01T02:04:48.639Z,0
2018-06-01T02:05:48.015Z,0
2018-06-01T02:06:48.445Z,0
2018-06-01T02:07:48.719Z,0
2018-06-01T02:08:48.493Z,0
2018-06-01T02:09:48.770Z,0
2018-06-01T02:10:48.796Z,0
2018-06-01T02:11:48.371Z,0
2018-06-01T02:12:48.831Z,0
2018-06-01T02:13:48.869Z,0
2018-06-01T02:14:48.376Z,0
2018-06-01T02:15:48.397Z,0
2018-06-01T02:16:48.673Z,0
2018-06-01T02:17:48.449Z,0
2018-06-01T02:18:48.468Z,0
2018-06-01T02:19:48.999Z,0
2018-06-01T02:20:48.513Z,0
2018-06-01T02:21:48.817Z,0
2018-06-01T02:22:49.070Z,0
2018-06-01T02:23:48.891Z,0
2018-06-01T02:24:48.853Z,0
2018-06-01T02:25:48.877Z,0
2018-06-01T02:26:48.942Z,0
2018-06-01T02:27:49.168Z,0
2018-06-01T02:28:49.195Z,0
2018-06-01T02:29:48.965Z,0
2018-06-01T02:30:49.245Z,0
2018-06-01T02:31:49.042Z,0
2018-06-01T02:32:49.300Z,0
2018-06-01T02:33:49.323Z,0
2018-06-01T02:34:49.090Z,0
2018-06-01T02:35:48.858Z,0
2018-06-01T02:36:49.389Z,0
2018-06-01T02:37:49.154Z,0
2018-06-01T02:38:49.445Z,0
2018-06-01T02:39:49.221Z,0
2018-06-01T02:40:49.240Z,0
2018-06-01T02:41:49.443Z,0
2018-06-01T02:42:49.044Z,0
2018-06-01T02:43:49.309Z,0
2018-06-01T02:44:49.085Z,0
2018-06-01T02:45:49.139Z,0
2018-06-01T02:46:49.660Z,0
2018-06-01T02:47:49.423Z,0
2018-06-01T02:48:49.690Z,0
2018-06-01T02:49:49.461Z,0
2018-06-01T02:50:49.475Z,0
2018-06-01T02:51:49.619Z,0
2018-06-01T02:52:49.287Z,0
2018-06-01T02:53:49.562Z,0
2018-06-01T02:54:49.843Z,0
2018-06-01T02:55:49.852Z,0
2018-06-01T02:56:49.934Z,0
2018-06-01T02:57:49.667Z,0
2018-06-01T02:58:49.922Z,0
2018-06-01T02:59:49.730Z,0
2018-06-01T03:00:49.971Z,0
2018-06-01T03:01:49.991Z,0
2018-06-01T03:02:50.018Z,0
2018-06-01T03:03:50.041Z,0
2018-06-01T03:04:49.796Z,0
2018-06-01T03:05:50.072Z,0
2018-06-01T03:06:49.326Z,0
2018-06-01T03:07:50.112Z,0
2018-06-01T03:08:50.148Z,0
2018-06-01T03:09:50.163Z,0
2018-06-01T03:10:50.188Z,0
2018-06-01T03:11:50.272Z,0
2018-06-01T03:12:49.993Z,0
2018-06-01T03:13:50.014Z,0
2018-06-01T03:14:50.043Z,0
2018-06-01T03:15:50.074Z,0
2018-06-01T03:16:50.345Z,0
2018-06-01T03:17:50.363Z,0
2018-06-01T03:18:50.382Z,5
2018-06-01T03:19:49.900Z,5
2018-06-01T03:20:50.175Z,5
2018-06-01T03:21:50.205Z,5
2018-06-01T03:22:50.466Z,5
2018-06-01T03:23:50.493Z,5
2018-06-01T03:24:50.263Z,5
2018-06-01T03:25:50.543Z,5
2018-06-01T03:26:50.103Z,5
2018-06-01T03:27:50.342Z,5
2018-06-01T03:28:50.604Z,5
2018-06-01T03:29:50.644Z,10
2018-06-01T03:30:50.403Z,10
2018-06-01T03:31:50.119Z,10
2018-06-01T03:32:50.453Z,10
2018-06-01T03:33:50.219Z,10
2018-06-01T03:34:50.489Z,10
2018-06-01T03:35:50.006Z,10
2018-06-01T03:36:50.549Z,10
2018-06-01T03:37:50.814Z,10
2018-06-01T03:38:50.835Z,10
2018-06-01T03:39:50.097Z,10
2018-06-01T03:40:50.632Z,10
2018-06-01T03:41:50.712Z,10
2018-06-01T03:42:50.950Z,10
2018-06-01T03:43:50.977Z,10
2018-06-01T03:44:50.996Z,10
2018-06-01T03:45:50.761Z,10
2018-06-01T03:46:51.052Z,15
2018-06-01T03:47:50.815Z,15
2018-06-01T03:48:50.572Z,15
2018-06-01T03:49:51.117Z,15
2018-06-01T03:50:51.116Z,15
2018-06-01T03:51:51.131Z,15
2018-06-01T03:52:50.900Z,15
2018-06-01T03:53:51.204Z,15
2018-06-01T03:54:50.717Z,20
2018-06-01T03:55:50.737Z,20
2018-06-01T03:56:51.319Z,20
2018-06-01T03:57:51.037Z,20
2018-06-01T03:58:51.316Z,25
2018-06-01T03:59:50.577Z,25
2018-06-01T04:00:51.363Z,25
2018-06-01T04:01:51.385Z,30
2018-06-01T04:02:50.926Z,30
2018-06-01T04:03:51.186Z,35
2018-06-01T04:04:51.453Z,35
2018-06-01T04:05:50.716Z,35
2018-06-01T04:06:51.256Z,40
2018-06-01T04:07:51.528Z,40
2018-06-01T04:08:51.294Z,40
2018-06-01T04:09:51.318Z,40
2018-06-01T04:10:51.591Z,45
2018-06-01T04:11:51.666Z,45
2018-06-01T04:12:51.637Z,45
2018-06-01T04:13:50.896Z,45
2018-06-01T04:14:51.182Z,45
2018-06-01T04:15:51.460Z,45
2018-06-01T04:16:52.485Z,50
2018-06-01T04:17:51.500Z,50
2018-06-01T04:18:51.776Z,50
2018-06-01T04:19:51.812Z,50
2018-06-01T04:20:51.821Z,50
2018-06-01T04:21:51.351Z,50
2018-06-01T04:22:51.351Z,55
2018-06-01T04:23:51.375Z,55
2018-06-01T04:24:51.926Z,55
2018-06-01T04:25:51.688Z,60
2018-06-01T04:26:52.024Z,60
2018-06-01T04:27:52.213Z,65
2018-06-01T04:28:52.039Z,65
2018-06-01T04:29:52.053Z,65
2018-06-01T04:30:51.814Z,65
2018-06-01T04:31:52.095Z,65
2018-06-01T04:32:52.115Z,70
2018-06-01T04:33:51.873Z,75
2018-06-01T04:34:51.903Z,70
2018-06-01T04:35:52.171Z,70
2018-06-01T04:36:52.209Z,70
2018-06-01T04:37:51.718Z,75
2018-06-01T04:38:51.993Z,75
2018-06-01T04:39:52.259Z,75
2018-06-01T04:40:52.329Z,75
2018-06-01T04:41:51.839Z,70
2018-06-01T04:42:52.319Z,70
2018-06-01T04:43:52.091Z,70
2018-06-01T04:44:52.374Z,70
2018-06-01T04:45:52.139Z,70
2018-06-01T04:46:52.437Z,70
2018-06-01T04:47:52.441Z,70
2018-06-01T04:48:52.457Z,70
2018-06-01T04:49:52.487Z,70
2018-06-01T04:50:52.512Z,70
2018-06-01T04:51:52.537Z,70
2018-06-01T04:52:52.575Z,70
2018-06-01T04:53:52.340Z,70
2018-06-01T04:54:52.642Z,70
2018-06-01T04:55:52.643Z,65
2018-06-01T04:56:52.731Z,65
2018-06-01T04:57:52.692Z,65
2018-06-01T04:58:52.208Z,65
2018-06-01T04:59:52.757Z,65
2018-06-01T05:00:52.240Z,65
2018-06-01T05:01:52.774Z,65
2018-06-01T05:02:52.542Z,65
2018-06-01T05:03:52.894Z,65
2018-06-01T05:04:52.609Z,65
2018-06-01T05:05:52.368Z,65
2018-06-01T05:06:52.649Z,65
2018-06-01T05:07:52.945Z,65
2018-06-01T05:08:52.439Z,65
2018-06-01T05:09:53.035Z,65
2018-06-01T05:10:52.746Z,60
2018-06-01T05:11:53.049Z,60
2018-06-01T05:12:52.769Z,60
2018-06-01T05:13:52.290Z,60
2018-06-01T05:14:52.835Z,60
2018-06-01T05:15:52.358Z,60
2018-06-01T05:16:53.242Z,65
2018-06-01T05:17:53.163Z,65
2018-06-01T05:18:53.188Z,65
2018-06-01T05:19:53.209Z,70
2018-06-01T05:20:53.245Z,70
2018-06-01T05:21:53.260Z,70
2018-06-01T05:22:53.030Z,70
2018-06-01T05:23:53.055Z,70
2018-06-01T05:24:53.074Z,70
2018-06-01T05:25:53.354Z,70
2018-06-01T05:26:53.171Z,70
2018-06-01T05:27:53.412Z,70
2018-06-01T05:28:52.921Z,70
2018-06-01T05:29:53.193Z,70
2018-06-01T05:30:53.219Z,70
2018-06-01T05:31:53.295Z,70
2018-06-01T05:32:53.264Z,75
2018-06-01T05:33:53.292Z,75
2018-06-01T05:34:53.568Z,75
2018-06-01T05:35:53.595Z,75
2018-06-01T05:36:53.616Z,75
2018-06-01T05:37:53.381Z,80
2018-06-01T05:38:53.676Z,85
2018-06-01T05:39:53.683Z,85
2018-06-01T05:40:53.201Z,85
2018-06-01T05:41:53.776Z,85
2018-06-01T05:42:53.237Z,85
2018-06-01T05:43:53.758Z,85
2018-06-01T05:44:53.785Z,85
2018-06-01T05:45:53.808Z,85
2018-06-01T05:46:53.584Z,85
2018-06-01T05:47:53.594Z,85
2018-06-01T05:48:53.877Z,85
2018-06-01T05:49:53.675Z,85
2018-06-01T05:50:53.949Z,80
2018-06-01T05:51:54.037Z,80
2018-06-01T05:52:53.448Z,80
2018-06-01T05:53:53.983Z,80
2018-06-01T05:54:53.749Z,80
2018-06-01T05:55:53.269Z,75
2018-06-01T05:56:53.591Z,75
2018-06-01T05:57:53.862Z,70
2018-06-01T05:58:54.096Z,70
2018-06-01T05:59:53.617Z,70
2018-06-01T06:00:53.896Z,65
2018-06-01T06:01:53.948Z,60
2018-06-01T06:02:54.225Z,60
2018-06-01T06:03:53.742Z,55
2018-06-01T06:04:54.032Z,55
2018-06-01T06:05:54.299Z,55
2018-06-01T06:06:54.166Z,50
2018-06-01T06:07:53.595Z,50
2018-06-01T06:08:54.117Z,50
2018-06-01T06:09:54.135Z,50
2018-06-01T06:10:53.940Z,50
2018-06-01T06:11:54.213Z,50
2018-06-01T06:12:54.435Z,50
2018-06-01T06:13:54.464Z,50
2018-06-01T06:14:54.280Z,55
2018-06-01T06:15:54.588Z,55
2018-06-01T06:16:54.351Z,55
2018-06-01T06:17:54.606Z,55
2018-06-01T06:18:54.616Z,60
2018-06-01T06:19:54.566Z,60
2018-06-01T06:20:54.401Z,60
2018-06-01T06:21:54.179Z,65
2018-06-01T06:22:54.188Z,70
2018-06-01T06:23:54.210Z,70
2018-06-01T06:24:54.766Z,75
2018-06-01T06:25:54.655Z,80
2018-06-01T06:26:54.334Z,80
2018-06-01T06:27:54.559Z,85
2018-06-01T06:28:54.840Z,90
2018-06-01T06:29:54.349Z,95
2018-06-01T06:30:54.895Z,100
2018-06-01T06:31:54.654Z,110
2018-06-01T06:32:54.680Z,115
2018-06-01T06:33:54.939Z,115
2018-06-01T06:34:54.456Z,120
2018-06-01T06:35:54.747Z,125
2018-06-01T06:36:54.507Z,125
2018-06-01T06:37:54.992Z,125
2018-06-01T06:38:54.828Z,130
2018-06-01T06:39:54.825Z,130
2018-06-01T06:40:54.847Z,130
2018-06-01T06:41:54.918Z,130
2018-06-01T06:42:55.153Z,135
2018-06-01T06:43:55.176Z,135
2018-06-01T06:44:54.948Z,140
2018-06-01T06:45:54.996Z,140
2018-06-01T06:46:54.742Z,140
2018-06-01T06:47:55.271Z,145
2018-06-01T06:48:55.305Z,145
2018-06-01T06:49:54.807Z,145
2018-06-01T06:50:54.587Z,150
2018-06-01T06:51:55.409Z,155
2018-06-01T06:52:55.121Z,160
2018-06-01T06:53:54.886Z,165
2018-06-01T06:54:54.652Z,170
2018-06-01T06:55:55.449Z,175
2018-06-01T06:56:55.007Z,180
2018-06-01T06:57:55.000Z,185
2018-06-01T06:58:55.005Z,190
2018-06-01T06:59:55.026Z,195
2018-06-01T07:00:55.297Z,200
2018-06-01T07:01:55.336Z,205
2018-06-01T07:02:55.109Z,210
2018-06-01T07:03:55.375Z,215
2018-06-01T07:04:55.399Z,220
2018-06-01T07:05:55.422Z,225
2018-06-01T07:06:55.719Z,235
2018-06-01T07:07:55.715Z,240
2018-06-01T07:08:55.232Z,245
2018-06-01T07:09:55.767Z,250
2018-06-01T07:10:55.548Z,260
2018-06-01T07:11:55.624Z,260
2018-06-01T07:12:55.591Z,260
2018-06-01T07:13:55.634Z,270
2018-06-01T07:14:55.395Z,280
2018-06-01T07:15:55.671Z,275
2018-06-01T07:16:55.762Z,275
2018-06-01T07:17:55.744Z,275
2018-06-01T07:18:55.750Z,285
2018-06-01T07:19:55.774Z,295
2018-06-01T07:20:56.048Z,280
2018-06-01T07:21:55.835Z,280
2018-06-01T07:22:55.855Z,295
2018-06-01T07:23:55.866Z,265
2018-06-01T07:24:56.156Z,290
2018-06-01T07:25:55.667Z,305
2018-06-01T07:26:55.688Z,290
2018-06-01T07:27:55.713Z,250
2018-06-01T07:28:56.246Z,285
2018-06-01T07:29:55.760Z,275
2018-06-01T07:30:56.044Z,205
2018-06-01T07:31:56.113Z,195
2018-06-01T07:32:56.089Z,185
2018-06-01T07:33:56.372Z,180
2018-06-01T07:34:56.403Z,255
2018-06-01T07:35:56.438Z,255
2018-06-01T07:36:55.929Z,255
2018-06-01T07:37:56.490Z,245
2018-06-01T07:38:56.079Z,250
2018-06-01T07:39:56.259Z,245
2018-06-01T07:40:56.551Z,240
2018-06-01T07:41:56.563Z,250
2018-06-01T07:42:56.334Z,245
2018-06-01T07:43:56.612Z,245
2018-06-01T07:44:56.395Z,245
2018-06-01T07:45:56.150Z,245
2018-06-01T07:46:56.711Z,245
2018-06-01T07:47:56.707Z,250
2018-06-01T07:48:56.727Z,250
2018-06-01T07:49:56.507Z,250
2018-06-01T07:50:56.801Z,250
2018-06-01T07:51:56.803Z,255
2018-06-01T07:52:56.578Z,240
2018-06-01T07:53:56.618Z,265
2018-06-01T07:54:56.635Z,265
2018-06-01T07:55:56.654Z,265
2018-06-01T07:56:56.698Z,270
2018-06-01T07:57:56.705Z,205
2018-06-01T07:58:56.488Z,190
2018-06-01T07:59:56.768Z,280
2018-06-01T08:00:57.083Z,280
2018-06-01T08:01:56.806Z,285
2018-06-01T08:02:56.638Z,290
2018-06-01T08:03:56.861Z,305
2018-06-01T08:04:57.148Z,325
2018-06-01T08:05:57.174Z,340
2018-06-01T08:06:56.944Z,335
2018-06-01T08:07:57.259Z,255
2018-06-01T08:08:57.255Z,320
2018-06-01T08:09:57.018Z,375
2018-06-01T08:10:57.306Z,395
2018-06-01T08:11:57.090Z,410
2018-06-01T08:12:57.088Z,425
2018-06-01T08:13:57.107Z,355
2018-06-01T08:14:57.184Z,380
2018-06-01T08:15:57.420Z,370
2018-06-01T08:16:56.936Z,370
2018-06-01T08:17:57.215Z,370
2018-06-01T08:18:57.495Z,390
2018-06-01T08:19:57.278Z,375
2018-06-01T08:20:57.295Z,375
2018-06-01T08:21:57.318Z,375
2018-06-01T08:22:57.386Z,405
2018-06-01T08:23:57.361Z,520
2018-06-01T08:24:57.630Z,405
2018-06-01T08:25:57.409Z,380
2018-06-01T08:26:57.521Z,385
2018-06-01T08:27:57.727Z,390
2018-06-01T08:28:57.500Z,390
2018-06-01T08:29:57.533Z,375
2018-06-01T08:30:57.809Z,360
2018-06-01T08:31:57.596Z,335
2018-06-01T08:32:57.891Z,310
2018-06-01T08:33:57.878Z,300
2018-06-01T08:34:57.389Z,310
2018-06-01T08:35:57.419Z,335
2018-06-01T08:36:57.444Z,430
2018-06-01T08:37:58.049Z,495
2018-06-01T08:38:57.765Z,405
2018-06-01T08:39:57.779Z,515
2018-06-01T08:40:58.097Z,515
2018-06-01T08:41:58.112Z,490
2018-06-01T08:42:57.631Z,560
2018-06-01T08:43:57.908Z,520
2018-06-01T08:44:57.672Z,385
2018-06-01T08:45:57.961Z,340
2018-06-01T08:46:57.979Z,310
2018-06-01T08:47:58.062Z,285
2018-06-01T08:48:58.038Z,335
2018-06-01T08:49:58.073Z,345
2018-06-01T08:50:57.849Z,400
2018-06-01T08:51:58.122Z,400
2018-06-01T08:52:58.192Z,405
2018-06-01T08:53:58.187Z,430
2018-06-01T08:54:58.205Z,460
2018-06-01T08:55:58.233Z,480
2018-06-01T08:56:58.265Z,495
2018-06-01T08:57:58.332Z,500
2018-06-01T08:58:58.978Z,545
2018-06-01T08:59:58.081Z,540
2018-06-01T09:00:58.626Z,505
2018-06-01T09:01:58.393Z,450
2018-06-01T09:02:58.437Z,380
2018-06-01T09:03:58.199Z,285
2018-06-01T09:04:58.476Z,260
2018-06-01T09:05:58.763Z,235
2018-06-01T09:06:58.789Z,230
2018-06-01T09:07:58.104Z,220
2018-06-01T09:08:58.601Z,230
2018-06-01T09:09:58.868Z,250
2018-06-01T09:10:58.903Z,270
2018-06-01T09:11:58.922Z,310
2018-06-01T09:12:58.911Z,330
2018-06-01T09:13:58.729Z,345
2018-06-01T09:14:58.754Z,350
2018-06-01T09:15:58.787Z,360
2018-06-01T09:16:59.181Z,370
2018-06-01T09:17:58.833Z,390
2018-06-01T09:18:58.874Z,410
2018-06-01T09:19:59.153Z,425
2018-06-01T09:20:59.175Z,430
2018-06-01T09:21:58.954Z,430
2018-06-01T09:22:59.277Z,435
2018-06-01T09:23:59.051Z,470
2018-06-01T09:24:59.032Z,480
2018-06-01T09:25:59.307Z,515
2018-06-01T09:26:59.095Z,520
2018-06-01T09:27:59.105Z,535
2018-06-01T09:28:59.379Z,460
2018-06-01T09:29:59.166Z,460
2018-06-01T09:30:59.187Z,465
2018-06-01T09:31:59.211Z,420
2018-06-01T09:32:59.244Z,460
2018-06-01T09:33:59.036Z,420
2018-06-01T09:34:59.567Z,410
2018-06-01T09:35:59.595Z,410
2018-06-01T09:36:59.363Z,405
2018-06-01T09:37:59.456Z,420
2018-06-01T09:38:59.677Z,440
2018-06-01T09:39:59.728Z,425
2018-06-01T09:40:59.740Z,425
2018-06-01T09:41:59.512Z,445
2018-06-01T09:42:59.320Z,470
2018-06-01T09:43:59.789Z,500
2018-06-01T09:44:59.834Z,535
2018-06-01T09:45:59.340Z,590
2018-06-01T09:46:59.912Z,580
2018-06-01T09:47:59.780Z,580
2018-06-01T09:48:59.974Z,575
2018-06-01T09:49:59.996Z,535
2018-06-01T09:50:59.787Z,530
2018-06-01T09:51:59.284Z,535
2018-06-01T09:52:59.597Z,675
2018-06-01T09:53:59.833Z,500
2018-06-01T09:54:59.372Z,480
2018-06-01T09:56:00.146Z,455
2018-06-01T09:56:59.923Z,430
2018-06-01T09:57:59.997Z,410
2018-06-01T09:58:59.970Z,390
2018-06-01T10:00:00.247Z,370
2018-06-01T10:01:00.045Z,375
2018-06-01T10:01:59.555Z,370
2018-06-01T10:03:00.104Z,375
2018-06-01T10:04:00.140Z,375
2018-06-01T10:04:59.919Z,385
2018-06-01T10:06:00.447Z,385
2018-06-01T10:07:00.497Z,385
2018-06-01T10:08:00.257Z,385
2018-06-01T10:09:00.279Z,400
2018-06-01T10:10:00.580Z,440
2018-06-01T10:11:00.590Z,450
2018-06-01T10:12:00.639Z,385
2018-06-01T10:13:00.446Z,420
2018-06-01T10:14:00.680Z,610
2018-06-01T10:15:00.736Z,630
2018-06-01T10:16:00.484Z,645
2018-06-01T10:17:00.510Z,660
2018-06-01T10:18:00.534Z,675
2018-06-01T10:19:00.821Z,695
2018-06-01T10:20:00.855Z,720
2018-06-01T10:21:00.624Z,740
2018-06-01T10:22:00.914Z,755
2018-06-01T10:23:00.985Z,770
2018-06-01T10:24:00.965Z,795
2018-06-01T10:25:01.003Z,775
2018-06-01T10:26:00.526Z,670
2018-06-01T10:27:00.821Z,600
2018-06-01T10:28:00.844Z,620
2018-06-01T10:29:00.615Z,685
2018-06-01T10:30:00.912Z,660
2018-06-01T10:31:00.442Z,760
2018-06-01T10:32:00.701Z,605
2018-06-01T10:33:01.457Z,725
2018-06-01T10:34:01.108Z,560
2018-06-01T10:35:01.313Z,540
2018-06-01T10:36:01.341Z,545
2018-06-01T10:37:01.372Z,550
2018-06-01T10:38:00.695Z,560
2018-06-01T10:39:01.176Z,560
2018-06-01T10:40:00.960Z,550
2018-06-01T10:41:01.501Z,540
2018-06-01T10:42:01.523Z,525
2018-06-01T10:43:01.596Z,510
2018-06-01T10:44:01.335Z,495
2018-06-01T10:45:01.642Z,480
2018-06-01T10:46:01.397Z,490
2018-06-01T10:47:01.693Z,495
2018-06-01T10:48:01.747Z,505
2018-06-01T10:49:01.738Z,650
2018-06-01T10:50:01.522Z,650
2018-06-01T10:51:01.848Z,610
2018-06-01T10:52:01.569Z,680
2018-06-01T10:53:01.666Z,650
2018-06-01T10:54:01.375Z,635
2018-06-01T10:55:01.917Z,795
2018-06-01T10:56:01.953Z,760
2018-06-01T10:57:01.718Z,650
2018-06-01T10:58:01.754Z,670
2018-06-01T10:59:02.031Z,820
2018-06-01T11:00:01.822Z,760
2018-06-01T11:01:02.097Z,830
2018-06-01T11:02:02.136Z,860
2018-06-01T11:03:01.908Z,775
2018-06-01T11:04:02.195Z,845
2018-06-01T11:05:02.237Z,725
2018-06-01T11:06:02.004Z,760
2018-06-01T11:07:02.285Z,670
2018-06-01T11:08:02.117Z,610
2018-06-01T11:09:01.848Z,570
2018-06-01T11:10:02.139Z,540
2018-06-01T11:11:02.175Z,530
2018-06-01T11:12:02.463Z,500
2018-06-01T11:13:02.233Z,495
2018-06-01T11:14:02.253Z,485
2018-06-01T11:15:02.554Z,635
2018-06-01T11:16:02.068Z,480
2018-06-01T11:17:02.634Z,480
2018-06-01T11:18:02.413Z,460
2018-06-01T11:19:02.419Z,445
2018-06-01T11:20:02.450Z,455
2018-06-01T11:21:02.231Z,455
2018-06-01T11:22:02.536Z,460
2018-06-01T11:23:02.342Z,475
2018-06-01T11:24:02.577Z,500
2018-06-01T11:25:02.607Z,525
2018-06-01T11:26:02.650Z,550
2018-06-01T11:27:02.935Z,585
2018-06-01T11:28:02.710Z,670
2018-06-01T11:29:02.742Z,630
2018-06-01T11:30:02.769Z,650
2018-06-01T11:31:02.541Z,610
2018-06-01T11:32:02.297Z,855
2018-06-01T11:33:03.198Z,870
2018-06-01T11:34:02.622Z,870
2018-06-01T11:35:02.644Z,875
2018-06-01T11:36:02.675Z,890
2018-06-01T11:37:03.219Z,890
2018-06-01T11:38:02.804Z,895
2018-06-01T11:39:02.530Z,900
2018-06-01T11:40:03.072Z,930
2018-06-01T11:41:02.845Z,950
2018-06-01T11:42:03.130Z,945
2018-06-01T11:43:02.928Z,950
2018-06-01T11:44:03.454Z,950
2018-06-01T11:45:03.230Z,890
2018-06-01T11:46:03.301Z,520
2018-06-01T11:47:03.289Z,955
2018-06-01T11:48:03.632Z,945
2018-06-01T11:49:03.361Z,965
2018-06-01T11:50:03.652Z,1000
2018-06-01T11:51:03.423Z,1045
2018-06-01T11:52:03.465Z,1040
2018-06-01T11:53:03.795Z,500
2018-06-01T11:54:03.526Z,500
2018-06-01T11:55:03.566Z,500
2018-06-01T11:56:03.441Z,485
2018-06-01T11:57:03.890Z,495
2018-06-01T11:58:04.023Z,520
2018-06-01T11:59:03.952Z,1000
2018-06-01T12:00:03.981Z,520
2018-06-01T12:01:04.008Z,645
2018-06-01T12:02:03.791Z,895
2018-06-01T12:03:04.116Z,525
2018-06-01T12:04:04.133Z,540
2018-06-01T12:05:03.891Z,555
2018-06-01T12:06:03.919Z,525
2018-06-01T12:07:03.952Z,510
2018-06-01T12:08:04.040Z,515
2018-06-01T12:09:04.485Z,555
2018-06-01T12:10:04.052Z,610
2018-06-01T12:11:04.521Z,675
2018-06-01T12:12:03.881Z,1265
2018-06-01T12:13:04.151Z,1355
2018-06-01T12:14:04.466Z,1400
2018-06-01T12:15:04.219Z,1490
2018-06-01T12:16:04.528Z,1500
2018-06-01T12:17:04.554Z,1545
2018-06-01T12:18:03.540Z,1615
2018-06-01T12:19:04.345Z,1670
2018-06-01T12:20:04.121Z,850
2018-06-01T12:21:04.638Z,1800
2018-06-01T12:22:04.676Z,1845
2018-06-01T12:23:04.256Z,1625
2018-06-01T12:24:04.748Z,580
2018-06-01T12:25:04.773Z,480
2018-06-01T12:26:04.299Z,470
2018-06-01T12:27:04.839Z,475
2018-06-01T12:28:04.623Z,500
2018-06-01T12:29:04.399Z,530
2018-06-01T12:30:03.937Z,640
2018-06-01T12:31:04.727Z,915
2018-06-01T12:32:04.772Z,765
2018-06-01T12:33:04.552Z,490
2018-06-01T12:34:04.846Z,455
2018-06-01T12:35:04.867Z,445
2018-06-01T12:36:05.152Z,475
2018-06-01T12:37:04.429Z,435
2018-06-01T12:38:05.027Z,435
2018-06-01T12:39:05.004Z,450
2018-06-01T12:40:05.269Z,465
2018-06-01T12:41:05.060Z,520
2018-06-01T12:42:05.084Z,560
2018-06-01T12:43:05.143Z,640
2018-06-01T12:44:05.147Z,1425
2018-06-01T12:45:04.668Z,1900
2018-06-01T12:46:04.712Z,1900
2018-06-01T12:47:05.253Z,1845
2018-06-01T12:48:05.546Z,1470
2018-06-01T12:49:05.057Z,1855
2018-06-01T12:50:05.598Z,1940
2018-06-01T12:51:05.381Z,1960
2018-06-01T12:52:05.151Z,1915
2018-06-01T12:53:05.483Z,1855
2018-06-01T12:54:05.848Z,1795
2018-06-01T12:55:05.751Z,1690
2018-06-01T12:56:05.278Z,1850
2018-06-01T12:57:05.819Z,1960
2018-06-01T12:58:05.607Z,1895
2018-06-01T12:59:05.653Z,1805
2018-06-01T13:00:05.696Z,1610
2018-06-01T13:01:05.713Z,1615
2018-06-01T13:02:05.754Z,1805
2018-06-01T13:03:05.792Z,1815
2018-06-01T13:04:05.568Z,1655
2018-06-01T13:05:06.109Z,1555
2018-06-01T13:06:06.147Z,1570
2018-06-01T13:07:05.920Z,1590
2018-06-01T13:08:06.005Z,1585
2018-06-01T13:09:06.453Z,1610
2018-06-01T13:10:06.062Z,1710
2018-06-01T13:11:06.053Z,1710
2018-06-01T13:12:05.825Z,520
2018-06-01T13:13:06.109Z,520
2018-06-01T13:14:05.897Z,560
2018-06-01T13:15:05.945Z,930
2018-06-01T13:16:05.714Z,1770
2018-06-01T13:17:06.252Z,1795
2018-06-01T13:18:06.084Z,1905
2018-06-01T13:19:06.078Z,1840
2018-06-01T13:20:06.630Z,1795
2018-06-01T13:21:06.662Z,1750
2018-06-01T13:22:06.692Z,1860
2018-06-01T13:23:05.987Z,1870
2018-06-01T13:24:06.511Z,1865
2018-06-01T13:25:06.035Z,1800
2018-06-01T13:26:06.834Z,1780
2018-06-01T13:27:06.634Z,1765
2018-06-01T13:28:06.911Z,1880
2018-06-01T13:29:06.454Z,545
2018-06-01T13:30:06.733Z,480
2018-06-01T13:31:06.522Z,460
2018-06-01T13:32:06.806Z,455
2018-06-01T13:33:06.632Z,485
2018-06-01T13:34:07.126Z,530
2018-06-01T13:35:07.178Z,625
2018-06-01T13:36:06.697Z,1860
2018-06-01T13:37:06.475Z,890
2018-06-01T13:38:07.330Z,1690
2018-06-01T13:39:07.058Z,1500
2018-06-01T13:40:07.091Z,1325
2018-06-01T13:41:07.148Z,1245
2018-06-01T13:42:07.023Z,1550
2018-06-01T13:43:06.685Z,1710
2018-06-01T13:44:06.977Z,1800
2018-06-01T13:45:07.278Z,1920
2018-06-01T13:46:07.041Z,2090
2018-06-01T13:47:07.331Z,2175
2018-06-01T13:48:07.158Z,2255
2018-06-01T13:49:07.397Z,2040
2018-06-01T13:50:07.178Z,1545
2018-06-01T13:51:07.719Z,1860
2018-06-01T13:52:07.251Z,1645
2018-06-01T13:53:07.541Z,1740
2018-06-01T13:54:07.578Z,1050
2018-06-01T13:55:07.620Z,880
2018-06-01T13:56:07.652Z,2025
2018-06-01T13:57:07.694Z,2180
2018-06-01T13:58:07.479Z,2170
2018-06-01T13:59:07.765Z,2070
2018-06-01T14:00:08.059Z,2125
2018-06-01T14:01:07.838Z,2055
2018-06-01T14:02:07.873Z,830
2018-06-01T14:03:08.231Z,1920
2018-06-01T14:04:07.700Z,1625